Puerto Penasco, SON, Mexico
Current Conditions -  °F | °C
As of 8:57 AM on Monday 24 Nov 2014 (Local Time) from KNYL Reporting Station
Scattered Clouds Scattered Clouds  
Wind Chill: 60°   Ceiling: Unl
Heat Index: 60°   Visibility: 10mi
Dew Point: 13°   Wind: 9mph
Humidity: 16%   Direction: 330°NNW
Pressure: 30.25"   Gusts: NA
Location:  31.32°N, 113.53°W
Report Text: KNYL 241557Z 33008KT 10SM SCT250 16/M11 A3025 RMK AO2 SLP241 T01561106
Loading
Personal Weather Stations






























Interactive Weather Map New forecast layout! Learn more

10-Day Weather Forecast

Advertisements
Track Severe Weather on mobile